sensor_id;sensor_type;location;lat;lon;timestamp;P1;durP1;ratioP1;P2;durP2;ratioP2
7154;SDS011;3619;53.784;10.440;2024-01-10T00:01:52;36.47;;;35.07;;
7154;SDS011;3619;53.784;10.440;2024-01-10T00:04:18;35.80;;;34.43;;
7154;SDS011;3619;53.784;10.440;2024-01-10T00:06:45;39.17;;;37.67;;
7154;SDS011;3619;53.784;10.440;2024-01-10T00:09:12;33.70;;;32.40;;
7154;SDS011;3619;53.784;10.440;2024-01-10T00:11:39;39.97;;;38.47;;
7154;SDS011;3619;53.784;10.440;2024-01-10T00:14:06;40.50;;;38.97;;
7154;SDS011;3619;53.784;10.440;2024-01-10T00:16:33;40.13;;;38.63;;
7154;SDS011;3619;53.784;10.440;2024-01-10T00:19:01;41.00;;;39.40;;
7154;SDS011;3619;53.784;10.440;2024-01-10T00:21:28;38.60;;;37.13;;
7154;SDS011;3619;53.784;10.440;2024-01-10T00:23:58;46.27;;;44.47;;
7154;SDS011;3619;53.784;10.440;2024-01-10T00:26:25;44.37;;;42.67;;
7154;SDS011;3619;53.784;10.440;2024-01-10T00:28:52;46.47;;;44.67;;
7154;SDS011;3619;53.784;10.440;2024-01-10T00:31:20;44.50;;;42.80;;
7154;SDS011;3619;53.784;10.440;2024-01-10T00:33:47;44.83;;;43.13;;
7154;SDS011;3619;53.784;10.440;2024-01-10T00:36:16;50.63;;;48.53;;
7154;SDS011;3619;53.784;10.440;2024-01-10T00:38:43;46.90;;;45.10;;
7154;SDS011;3619;53.784;10.440;2024-01-10T00:41:10;47.13;;;45.33;;
7154;SDS011;3619;53.784;10.440;2024-01-10T00:43:39;49.37;;;47.50;;
7154;SDS011;3619;53.784;10.440;2024-01-10T00:46:06;45.33;;;43.63;;
7154;SDS011;3619;53.784;10.440;2024-01-10T00:48:33;43.50;;;41.83;;
7154;SDS011;3619;53.784;10.440;2024-01-10T00:51:00;44.00;;;42.30;;
7154;SDS011;3619;53.784;10.440;2024-01-10T00:53:28;45.07;;;43.37;;
7154;SDS011;3619;53.784;10.440;2024-01-10T00:55:55;47.77;;;45.97;;
7154;SDS011;3619;53.784;10.440;2024-01-10T00:58:22;50.27;;;48.37;;
7154;SDS011;3619;53.784;10.440;2024-01-10T01:00:48;43.93;;;42.23;;
7154;SDS011;3619;53.784;10.440;2024-01-10T01:03:15;45.33;;;43.63;;
7154;SDS011;3619;53.784;10.440;2024-01-10T01:05:42;46.03;;;44.30;;
7154;SDS011;3619;53.784;10.440;2024-01-10T01:08:09;48.57;;;46.73;;
7154;SDS011;3619;53.784;10.440;2024-01-10T01:10:37;50.00;;;48.10;;
7154;SDS011;3619;53.784;10.440;2024-01-10T01:13:04;47.97;;;46.17;;
7154;SDS011;3619;53.784;10.440;2024-01-10T01:15:31;48.90;;;47.03;;
7154;SDS011;3619;53.784;10.440;2024-01-10T01:17:58;45.20;;;43.50;;
7154;SDS011;3619;53.784;10.440;2024-01-10T01:20:25;54.20;;;52.07;;
7154;SDS011;3619;53.784;10.440;2024-01-10T01:22:51;54.07;;;52.00;;
7154;SDS011;3619;53.784;10.440;2024-01-10T01:25:19;59.50;;;57.27;;
7154;SDS011;3619;53.784;10.440;2024-01-10T01:27:47;54.97;;;52.87;;
7154;SDS011;3619;53.784;10.440;2024-01-10T01:30:14;50.20;;;48.30;;
7154;SDS011;3619;53.784;10.440;2024-01-10T01:32:41;51.17;;;49.20;;
7154;SDS011;3619;53.784;10.440;2024-01-10T01:35:08;48.77;;;46.93;;
7154;SDS011;3619;53.784;10.440;2024-01-10T01:37:34;49.23;;;47.33;;
7154;SDS011;3619;53.784;10.440;2024-01-10T01:40:01;55.70;;;53.60;;
7154;SDS011;3619;53.784;10.440;2024-01-10T01:42:28;53.77;;;51.73;;
7154;SDS011;3619;53.784;10.440;2024-01-10T01:44:56;52.67;;;50.67;;
7154;SDS011;3619;53.784;10.440;2024-01-10T01:47:23;52.50;;;50.50;;
7154;SDS011;3619;53.784;10.440;2024-01-10T01:49:52;51.13;;;49.23;;
7154;SDS011;3619;53.784;10.440;2024-01-10T01:52:19;54.57;;;52.50;;
7154;SDS011;3619;53.784;10.440;2024-01-10T01:54:46;56.17;;;54.07;;
7154;SDS011;3619;53.784;10.440;2024-01-10T01:57:13;53.87;;;51.83;;
7154;SDS011;3619;53.784;10.440;2024-01-10T01:59:42;45.50;;;43.77;;
7154;SDS011;3619;53.784;10.440;2024-01-10T02:02:10;54.67;;;52.60;;
7154;SDS011;3619;53.784;10.440;2024-01-10T02:04:40;62.67;;;60.00;;
7154;SDS011;3619;53.784;10.440;2024-01-10T02:07:08;57.93;;;55.73;;
7154;SDS011;3619;53.784;10.440;2024-01-10T02:09:35;64.20;;;61.80;;
7154;SDS011;3619;53.784;10.440;2024-01-10T02:12:04;61.93;;;59.60;;
7154;SDS011;3619;53.784;10.440;2024-01-10T02:14:34;60.47;;;58.17;;
7154;SDS011;3619;53.784;10.440;2024-01-10T02:17:02;52.13;;;50.13;;
7154;SDS011;3619;53.784;10.440;2024-01-10T02:19:32;59.27;;;57.07;;
7154;SDS011;3619;53.784;10.440;2024-01-10T02:21:59;55.50;;;53.40;;
7154;SDS011;3619;53.784;10.440;2024-01-10T02:24:27;56.13;;;54.03;;
7154;SDS011;3619;53.784;10.440;2024-01-10T02:26:56;55.17;;;53.07;;
7154;SDS011;3619;53.784;10.440;2024-01-10T02:29:23;62.40;;;60.03;;
7154;SDS011;3619;53.784;10.440;2024-01-10T02:31:50;59.97;;;57.67;;
7154;SDS011;3619;53.784;10.440;2024-01-10T02:34:16;58.30;;;56.10;;
7154;SDS011;3619;53.784;10.440;2024-01-10T02:36:43;58.57;;;56.33;;
7154;SDS011;3619;53.784;10.440;2024-01-10T02:39:10;56.63;;;54.47;;
7154;SDS011;3619;53.784;10.440;2024-01-10T02:41:37;58.13;;;55.93;;
7154;SDS011;3619;53.784;10.440;2024-01-10T02:44:05;57.00;;;54.83;;
7154;SDS011;3619;53.784;10.440;2024-01-10T02:46:32;54.70;;;52.60;;
7154;SDS011;3619;53.784;10.440;2024-01-10T02:48:59;53.93;;;51.83;;
7154;SDS011;3619;53.784;10.440;2024-01-10T02:51:26;55.67;;;53.57;;
7154;SDS011;3619;53.784;10.440;2024-01-10T02:53:55;52.40;;;50.40;;
7154;SDS011;3619;53.784;10.440;2024-01-10T02:56:22;58.83;;;56.63;;
7154;SDS011;3619;53.784;10.440;2024-01-10T02:58:48;54.00;;;51.90;;
7154;SDS011;3619;53.784;10.440;2024-01-10T03:01:17;57.20;;;55.00;;
7154;SDS011;3619;53.784;10.440;2024-01-10T03:03:43;55.13;;;53.03;;
7154;SDS011;3619;53.784;10.440;2024-01-10T03:06:10;51.93;;;49.93;;
7154;SDS011;3619;53.784;10.440;2024-01-10T03:08:37;48.43;;;46.57;;
7154;SDS011;3619;53.784;10.440;2024-01-10T03:11:04;53.03;;;51.03;;
7154;SDS011;3619;53.784;10.440;2024-01-10T03:13:31;47.87;;;46.07;;
7154;SDS011;3619;53.784;10.440;2024-01-10T03:15:58;47.90;;;46.10;;
7154;SDS011;3619;53.784;10.440;2024-01-10T03:18:27;52.67;;;50.67;;
7154;SDS011;3619;53.784;10.440;2024-01-10T03:20:54;48.20;;;46.30;;
7154;SDS011;3619;53.784;10.440;2024-01-10T03:23:21;46.60;;;44.80;;
7154;SDS011;3619;53.784;10.440;2024-01-10T03:25:48;51.27;;;49.27;;
7154;SDS011;3619;53.784;10.440;2024-01-10T03:28:15;53.87;;;51.80;;
7154;SDS011;3619;53.784;10.440;2024-01-10T03:30:43;51.33;;;49.33;;
7154;SDS011;3619;53.784;10.440;2024-01-10T03:33:10;58.00;;;55.57;;
7154;SDS011;3619;53.784;10.440;2024-01-10T03:35:39;57.40;;;55.20;;
7154;SDS011;3619;53.784;10.440;2024-01-10T03:38:06;52.80;;;50.80;;
7154;SDS011;3619;53.784;10.440;2024-01-10T03:40:33;62.00;;;59.70;;
7154;SDS011;3619;53.784;10.440;2024-01-10T03:43:00;58.77;;;56.57;;
7154;SDS011;3619;53.784;10.440;2024-01-10T03:45:27;61.17;;;58.87;;
7154;SDS011;3619;53.784;10.440;2024-01-10T03:47:54;65.37;;;62.87;;
7154;SDS011;3619;53.784;10.440;2024-01-10T03:50:21;65.43;;;62.97;;
7154;SDS011;3619;53.784;10.440;2024-01-10T03:52:50;62.37;;;60.07;;
7154;SDS011;3619;53.784;10.440;2024-01-10T03:55:17;58.73;;;56.53;;
7154;SDS011;3619;53.784;10.440;2024-01-10T03:57:44;63.33;;;60.93;;
7154;SDS011;3619;53.784;10.440;2024-01-10T04:00:11;68.77;;;66.17;;
7154;SDS011;3619;53.784;10.440;2024-01-10T04:02:39;56.97;;;54.80;;
7154;SDS011;3619;53.784;10.440;2024-01-10T04:05:07;67.83;;;65.27;;
7154;SDS011;3619;53.784;10.440;2024-01-10T04:07:36;60.30;;;58.00;;
7154;SDS011;3619;53.784;10.440;2024-01-10T04:10:08;56.77;;;54.60;;
7154;SDS011;3619;53.784;10.440;2024-01-10T04:12:35;64.47;;;62.07;;
7154;SDS011;3619;53.784;10.440;2024-01-10T04:15:02;64.43;;;62.03;;
7154;SDS011;3619;53.784;10.440;2024-01-10T04:17:30;56.97;;;54.80;;
7154;SDS011;3619;53.784;10.440;2024-01-10T04:19:58;61.07;;;58.77;;
7154;SDS011;3619;53.784;10.440;2024-01-10T04:22:25;62.73;;;60.33;;
7154;SDS011;3619;53.784;10.440;2024-01-10T04:24:55;59.70;;;57.03;;
7154;SDS011;3619;53.784;10.440;2024-01-10T04:27:24;64.10;;;61.70;;
7154;SDS011;3619;53.784;10.440;2024-01-10T04:29:51;58.10;;;55.90;;
7154;SDS011;3619;53.784;10.440;2024-01-10T04:32:18;64.07;;;61.67;;
7154;SDS011;3619;53.784;10.440;2024-01-10T04:34:47;65.77;;;63.27;;
7154;SDS011;3619;53.784;10.440;2024-01-10T04:37:15;57.07;;;54.87;;
7154;SDS011;3619;53.784;10.440;2024-01-10T04:39:42;58.50;;;56.30;;
7154;SDS011;3619;53.784;10.440;2024-01-10T04:42:09;53.07;;;51.07;;
7154;SDS011;3619;53.784;10.440;2024-01-10T04:44:38;55.27;;;53.17;;
7154;SDS011;3619;53.784;10.440;2024-01-10T04:47:05;49.90;;;48.00;;
7154;SDS011;3619;53.784;10.440;2024-01-10T04:49:36;46.73;;;44.93;;
7154;SDS011;3619;53.784;10.440;2024-01-10T04:52:03;51.27;;;49.33;;
7154;SDS011;3619;53.784;10.440;2024-01-10T04:54:30;55.23;;;53.13;;
7154;SDS011;3619;53.784;10.440;2024-01-10T04:56:57;52.47;;;50.47;;
7154;SDS011;3619;53.784;10.440;2024-01-10T04:59:24;51.27;;;49.27;;
7154;SDS011;3619;53.784;10.440;2024-01-10T05:01:52;54.07;;;52.03;;
7154;SDS011;3619;53.784;10.440;2024-01-10T05:04:20;54.43;;;52.33;;
7154;SDS011;3619;53.784;10.440;2024-01-10T05:06:47;56.37;;;54.23;;
7154;SDS011;3619;53.784;10.440;2024-01-10T05:09:14;45.90;;;44.13;;
7154;SDS011;3619;53.784;10.440;2024-01-10T05:11:41;42.00;;;40.40;;
7154;SDS011;3619;53.784;10.440;2024-01-10T05:14:08;41.57;;;39.97;;
7154;SDS011;3619;53.784;10.440;2024-01-10T05:16:35;44.80;;;43.10;;
7154;SDS011;3619;53.784;10.440;2024-01-10T05:19:06;39.47;;;37.97;;
7154;SDS011;3619;53.784;10.440;2024-01-10T05:21:33;38.23;;;36.73;;
7154;SDS011;3619;53.784;10.440;2024-01-10T05:24:00;39.33;;;37.83;;
7154;SDS011;3619;53.784;10.440;2024-01-10T05:26:28;38.37;;;36.87;;
7154;SDS011;3619;53.784;10.440;2024-01-10T05:28:54;42.90;;;41.27;;
7154;SDS011;3619;53.784;10.440;2024-01-10T05:31:21;49.67;;;47.77;;
7154;SDS011;3619;53.784;10.440;2024-01-10T05:33:50;48.33;;;46.50;;
7154;SDS011;3619;53.784;10.440;2024-01-10T05:36:20;48.17;;;46.37;;
7154;SDS011;3619;53.784;10.440;2024-01-10T05:38:48;49.17;;;47.27;;
7154;SDS011;3619;53.784;10.440;2024-01-10T05:41:15;50.07;;;48.17;;
7154;SDS011;3619;53.784;10.440;2024-01-10T05:43:41;53.83;;;51.77;;
7154;SDS011;3619;53.784;10.440;2024-01-10T05:46:09;53.27;;;51.27;;
7154;SDS011;3619;53.784;10.440;2024-01-10T05:48:36;55.40;;;53.30;;
7154;SDS011;3619;53.784;10.440;2024-01-10T05:51:03;54.40;;;52.30;;
7154;SDS011;3619;53.784;10.440;2024-01-10T05:53:31;61.20;;;58.87;;
7154;SDS011;3619;53.784;10.440;2024-01-10T05:55:58;56.17;;;53.97;;
7154;SDS011;3619;53.784;10.440;2024-01-10T05:58:25;64.03;;;61.63;;
7154;SDS011;3619;53.784;10.440;2024-01-10T06:00:52;78.87;;;75.97;;
7154;SDS011;3619;53.784;10.440;2024-01-10T06:03:20;69.20;;;66.60;;
7154;SDS011;3619;53.784;10.440;2024-01-10T06:05:47;77.40;;;74.50;;
7154;SDS011;3619;53.784;10.440;2024-01-10T06:08:13;77.43;;;74.53;;
7154;SDS011;3619;53.784;10.440;2024-01-10T06:10:42;73.80;;;71.03;;
7154;SDS011;3619;53.784;10.440;2024-01-10T06:13:09;75.77;;;72.93;;
7154;SDS011;3619;53.784;10.440;2024-01-10T06:15:35;70.50;;;67.83;;
7154;SDS011;3619;53.784;10.440;2024-01-10T06:18:04;76.90;;;74.03;;
7154;SDS011;3619;53.784;10.440;2024-01-10T06:20:32;66.27;;;63.77;;
7154;SDS011;3619;53.784;10.440;2024-01-10T06:23:00;74.23;;;71.43;;
7154;SDS011;3619;53.784;10.440;2024-01-10T06:25:28;77.67;;;74.80;;
7154;SDS011;3619;53.784;10.440;2024-01-10T06:27:56;71.77;;;69.07;;
7154;SDS011;3619;53.784;10.440;2024-01-10T06:30:23;74.90;;;72.10;;
7154;SDS011;3619;53.784;10.440;2024-01-10T06:32:50;72.13;;;69.43;;
7154;SDS011;3619;53.784;10.440;2024-01-10T06:35:17;80.60;;;77.60;;
7154;SDS011;3619;53.784;10.440;2024-01-10T06:37:45;74.93;;;72.13;;
7154;SDS011;3619;53.784;10.440;2024-01-10T06:40:12;80.70;;;77.70;;
7154;SDS011;3619;53.784;10.440;2024-01-10T06:42:41;73.00;;;70.27;;
7154;SDS011;3619;53.784;10.440;2024-01-10T06:45:09;71.80;;;69.10;;
7154;SDS011;3619;53.784;10.440;2024-01-10T06:47:37;72.03;;;69.33;;
7154;SDS011;3619;53.784;10.440;2024-01-10T06:50:04;70.93;;;68.27;;
7154;SDS011;3619;53.784;10.440;2024-01-10T06:52:34;80.53;;;77.53;;
7154;SDS011;3619;53.784;10.440;2024-01-10T06:55:00;70.43;;;67.80;;
7154;SDS011;3619;53.784;10.440;2024-01-10T06:57:29;77.03;;;74.13;;
7154;SDS011;3619;53.784;10.440;2024-01-10T06:59:57;80.10;;;77.10;;
7154;SDS011;3619;53.784;10.440;2024-01-10T07:02:25;76.57;;;73.73;;
7154;SDS011;3619;53.784;10.440;2024-01-10T07:04:53;72.27;;;69.57;;
7154;SDS011;3619;53.784;10.440;2024-01-10T07:07:20;77.77;;;74.87;;
7154;SDS011;3619;53.784;10.440;2024-01-10T07:09:47;71.70;;;69.03;;
7154;SDS011;3619;53.784;10.440;2024-01-10T07:12:13;69.40;;;66.80;;
7154;SDS011;3619;53.784;10.440;2024-01-10T07:14:40;74.47;;;71.70;;
7154;SDS011;3619;53.784;10.440;2024-01-10T07:17:07;74.07;;;71.23;;
7154;SDS011;3619;53.784;10.440;2024-01-10T07:19:36;73.20;;;70.50;;
7154;SDS011;3619;53.784;10.440;2024-01-10T07:22:03;77.10;;;74.20;;
7154;SDS011;3619;53.784;10.440;2024-01-10T07:24:30;78.57;;;75.67;;
7154;SDS011;3619;53.784;10.440;2024-01-10T07:26:57;76.43;;;73.60;;
7154;SDS011;3619;53.784;10.440;2024-01-10T07:29:25;75.27;;;72.47;;
7154;SDS011;3619;53.784;10.440;2024-01-10T07:31:52;75.03;;;72.23;;
7154;SDS011;3619;53.784;10.440;2024-01-10T07:34:19;72.33;;;69.63;;
7154;SDS011;3619;53.784;10.440;2024-01-10T07:36:48;76.30;;;73.47;;
7154;SDS011;3619;53.784;10.440;2024-01-10T07:39:15;69.73;;;67.13;;
7154;SDS011;3619;53.784;10.440;2024-01-10T07:41:43;73.00;;;70.30;;
7154;SDS011;3619;53.784;10.440;2024-01-10T07:44:10;60.70;;;58.40;;
7154;SDS011;3619;53.784;10.440;2024-01-10T07:46:37;75.17;;;72.37;;
7154;SDS011;3619;53.784;10.440;2024-01-10T07:49:05;65.63;;;63.13;;
7154;SDS011;3619;53.784;10.440;2024-01-10T07:51:32;66.67;;;64.17;;
7154;SDS011;3619;53.784;10.440;2024-01-10T07:54:00;68.03;;;65.43;;
7154;SDS011;3619;53.784;10.440;2024-01-10T07:56:27;65.47;;;62.97;;
7154;SDS011;3619;53.784;10.440;2024-01-10T07:58:55;57.37;;;55.17;;
7154;SDS011;3619;53.784;10.440;2024-01-10T08:01:22;58.00;;;55.80;;
7154;SDS011;3619;53.784;10.440;2024-01-10T08:03:48;60.27;;;57.97;;
7154;SDS011;3619;53.784;10.440;2024-01-10T08:06:15;50.80;;;48.90;;
7154;SDS011;3619;53.784;10.440;2024-01-10T08:08:42;56.70;;;54.53;;
7154;SDS011;3619;53.784;10.440;2024-01-10T08:11:11;52.43;;;50.43;;
7154;SDS011;3619;53.784;10.440;2024-01-10T08:13:37;50.47;;;48.57;;
7154;SDS011;3619;53.784;10.440;2024-01-10T08:16:05;56.17;;;54.07;;
7154;SDS011;3619;53.784;10.440;2024-01-10T08:18:33;56.20;;;54.10;;
7154;SDS011;3619;53.784;10.440;2024-01-10T08:21:00;60.80;;;58.50;;
7154;SDS011;3619;53.784;10.440;2024-01-10T08:23:29;52.53;;;50.53;;
7154;SDS011;3619;53.784;10.440;2024-01-10T08:25:56;52.90;;;50.90;;
7154;SDS011;3619;53.784;10.440;2024-01-10T08:28:25;47.27;;;45.47;;
7154;SDS011;3619;53.784;10.440;2024-01-10T08:30:52;54.33;;;52.27;;
7154;SDS011;3619;53.784;10.440;2024-01-10T08:33:19;59.53;;;57.27;;
7154;SDS011;3619;53.784;10.440;2024-01-10T08:35:47;57.00;;;54.80;;
7154;SDS011;3619;53.784;10.440;2024-01-10T08:38:14;58.13;;;55.93;;
7154;SDS011;3619;53.784;10.440;2024-01-10T08:40:42;56.97;;;54.80;;
7154;SDS011;3619;53.784;10.440;2024-01-10T08:43:08;65.20;;;62.73;;
7154;SDS011;3619;53.784;10.440;2024-01-10T08:45:37;64.80;;;62.37;;
7154;SDS011;3619;53.784;10.440;2024-01-10T08:48:06;64.60;;;62.20;;
7154;SDS011;3619;53.784;10.440;2024-01-10T08:50:32;64.03;;;61.63;;
7154;SDS011;3619;53.784;10.440;2024-01-10T08:53:00;69.10;;;66.50;;
7154;SDS011;3619;53.784;10.440;2024-01-10T08:55:28;58.37;;;56.17;;
7154;SDS011;3619;53.784;10.440;2024-01-10T08:57:56;66.03;;;63.53;;
7154;SDS011;3619;53.784;10.440;2024-01-10T09:00:23;59.10;;;56.87;;
7154;SDS011;3619;53.784;10.440;2024-01-10T09:02:51;67.27;;;64.67;;
7154;SDS011;3619;53.784;10.440;2024-01-10T09:05:20;64.03;;;61.63;;
7154;SDS011;3619;53.784;10.440;2024-01-10T09:07:47;62.60;;;60.20;;
7154;SDS011;3619;53.784;10.440;2024-01-10T09:10:14;73.30;;;70.60;;
7154;SDS011;3619;53.784;10.440;2024-01-10T09:12:42;63.67;;;61.27;;
7154;SDS011;3619;53.784;10.440;2024-01-10T09:15:11;66.40;;;63.90;;
7154;SDS011;3619;53.784;10.440;2024-01-10T09:17:39;63.30;;;60.90;;
7154;SDS011;3619;53.784;10.440;2024-01-10T09:20:08;65.20;;;62.70;;
7154;SDS011;3619;53.784;10.440;2024-01-10T09:22:42;68.13;;;65.57;;
7154;SDS011;3619;53.784;10.440;2024-01-10T09:25:09;71.60;;;68.90;;
7154;SDS011;3619;53.784;10.440;2024-01-10T09:27:38;68.77;;;66.17;;
7154;SDS011;3619;53.784;10.440;2024-01-10T09:30:07;69.47;;;66.83;;
7154;SDS011;3619;53.784;10.440;2024-01-10T09:32:34;63.10;;;60.70;;
7154;SDS011;3619;53.784;10.440;2024-01-10T09:35:02;66.60;;;64.10;;
7154;SDS011;3619;53.784;10.440;2024-01-10T09:37:31;63.47;;;61.07;;
7154;SDS011;3619;53.784;10.440;2024-01-10T09:39:59;69.07;;;66.47;;
7154;SDS011;3619;53.784;10.440;2024-01-10T09:42:26;68.80;;;66.20;;
7154;SDS011;3619;53.784;10.440;2024-01-10T09:44:56;60.57;;;58.27;;
7154;SDS011;3619;53.784;10.440;2024-01-10T09:47:24;55.63;;;53.53;;
7154;SDS011;3619;53.784;10.440;2024-01-10T09:49:52;61.77;;;59.43;;
7154;SDS011;3619;53.784;10.440;2024-01-10T09:52:24;59.50;;;57.20;;
7154;SDS011;3619;53.784;10.440;2024-01-10T09:54:54;64.80;;;62.40;;
7154;SDS011;3619;53.784;10.440;2024-01-10T09:57:22;60.83;;;58.53;;
7154;SDS011;3619;53.784;10.440;2024-01-10T09:59:50;57.73;;;55.53;;
7154;SDS011;3619;53.784;10.440;2024-01-10T10:02:19;56.67;;;54.50;;
7154;SDS011;3619;53.784;10.440;2024-01-10T10:04:49;60.00;;;57.70;;
7154;SDS011;3619;53.784;10.440;2024-01-10T10:07:23;61.17;;;58.87;;
7154;SDS011;3619;53.784;10.440;2024-01-10T10:09:50;51.17;;;49.20;;
7154;SDS011;3619;53.784;10.440;2024-01-10T10:12:19;39.20;;;37.70;;
7154;SDS011;3619;53.784;10.440;2024-01-10T10:14:46;38.07;;;36.63;;
7154;SDS011;3619;53.784;10.440;2024-01-10T10:17:13;43.90;;;42.20;;
7154;SDS011;3619;53.784;10.440;2024-01-10T10:19:41;39.93;;;38.43;;
7154;SDS011;3619;53.784;10.440;2024-01-10T10:22:09;42.33;;;40.73;;
7154;SDS011;3619;53.784;10.440;2024-01-10T10:24:36;37.60;;;36.20;;
7154;SDS011;3619;53.784;10.440;2024-01-10T10:27:07;38.13;;;36.70;;
7154;SDS011;3619;53.784;10.440;2024-01-10T10:29:38;40.30;;;38.80;;
7154;SDS011;3619;53.784;10.440;2024-01-10T10:32:05;41.00;;;39.43;;
7154;SDS011;3619;53.784;10.440;2024-01-10T10:34:33;35.10;;;33.80;;
7154;SDS011;3619;53.784;10.440;2024-01-10T10:37:00;38.00;;;36.57;;
7154;SDS011;3619;53.784;10.440;2024-01-10T10:39:27;39.37;;;37.87;;
7154;SDS011;3619;53.784;10.440;2024-01-10T10:41:54;38.63;;;37.13;;
7154;SDS011;3619;53.784;10.440;2024-01-10T10:44:23;41.63;;;40.03;;
7154;SDS011;3619;53.784;10.440;2024-01-10T10:46:53;41.70;;;40.10;;
7154;SDS011;3619;53.784;10.440;2024-01-10T10:49:28;36.23;;;34.83;;
7154;SDS011;3619;53.784;10.440;2024-01-10T10:51:57;42.47;;;40.87;;
7154;SDS011;3619;53.784;10.440;2024-01-10T10:54:26;39.77;;;38.23;;
7154;SDS011;3619;53.784;10.440;2024-01-10T10:56:55;37.37;;;35.97;;
7154;SDS011;3619;53.784;10.440;2024-01-10T10:59:25;35.50;;;34.17;;
7154;SDS011;3619;53.784;10.440;2024-01-10T11:01:54;37.60;;;36.20;;
7154;SDS011;3619;53.784;10.440;2024-01-10T11:04:22;41.03;;;39.43;;
7154;SDS011;3619;53.784;10.440;2024-01-10T11:06:49;38.93;;;37.43;;
7154;SDS011;3619;53.784;10.440;2024-01-10T11:09:16;34.33;;;33.03;;
7154;SDS011;3619;53.784;10.440;2024-01-10T11:14:45;33.23;;;31.93;;
7154;SDS011;3619;53.784;10.440;2024-01-10T11:17:42;32.57;;;31.37;;
7154;SDS011;3619;53.784;10.440;2024-01-10T11:20:25;31.63;;;30.43;;
7154;SDS011;3619;53.784;10.440;2024-01-10T11:23:10;27.43;;;26.43;;
7154;SDS011;3619;53.784;10.440;2024-01-10T11:25:57;29.97;;;28.87;;
7154;SDS011;3619;53.784;10.440;2024-01-10T11:28:24;32.33;;;31.13;;
7154;SDS011;3619;53.784;10.440;2024-01-10T11:30:52;33.20;;;31.90;;
7154;SDS011;3619;53.784;10.440;2024-01-10T11:33:26;31.80;;;30.60;;
7154;SDS011;3619;53.784;10.440;2024-01-10T11:36:07;30.07;;;28.93;;
7154;SDS011;3619;53.784;10.440;2024-01-10T11:38:39;36.93;;;35.50;;
7154;SDS011;3619;53.784;10.440;2024-01-10T11:41:10;35.13;;;33.83;;
7154;SDS011;3619;53.784;10.440;2024-01-10T11:43:38;35.63;;;34.27;;
7154;SDS011;3619;53.784;10.440;2024-01-10T11:46:05;31.07;;;29.87;;
7154;SDS011;3619;53.784;10.440;2024-01-10T11:48:35;33.07;;;31.80;;
7154;SDS011;3619;53.784;10.440;2024-01-10T11:51:04;28.70;;;27.60;;
7154;SDS011;3619;53.784;10.440;2024-01-10T11:53:41;31.83;;;30.63;;
7154;SDS011;3619;53.784;10.440;2024-01-10T11:56:11;32.27;;;31.07;;
7154;SDS011;3619;53.784;10.440;2024-01-10T12:01:44;36.10;;;34.70;;
7154;SDS011;3619;53.784;10.440;2024-01-10T12:04:13;32.37;;;31.17;;
7154;SDS011;3619;53.784;10.440;2024-01-10T12:06:41;33.60;;;32.30;;
7154;SDS011;3619;53.784;10.440;2024-01-10T12:09:07;29.93;;;28.83;;
7154;SDS011;3619;53.784;10.440;2024-01-10T12:11:35;32.03;;;30.83;;
7154;SDS011;3619;53.784;10.440;2024-01-10T12:14:05;31.40;;;30.20;;
7154;SDS011;3619;53.784;10.440;2024-01-10T12:16:32;28.63;;;27.53;;
7154;SDS011;3619;53.784;10.440;2024-01-10T12:18:59;26.50;;;25.50;;
7154;SDS011;3619;53.784;10.440;2024-01-10T12:21:27;29.73;;;28.63;;
7154;SDS011;3619;53.784;10.440;2024-01-10T12:23:55;31.67;;;30.47;;
7154;SDS011;3619;53.784;10.440;2024-01-10T12:26:23;26.50;;;25.50;;
7154;SDS011;3619;53.784;10.440;2024-01-10T12:28:53;27.33;;;26.33;;
7154;SDS011;3619;53.784;10.440;2024-01-10T12:31:21;27.73;;;26.67;;
7154;SDS011;3619;53.784;10.440;2024-01-10T12:33:48;27.13;;;26.13;;
7154;SDS011;3619;53.784;10.440;2024-01-10T12:36:16;32.37;;;31.17;;
7154;SDS011;3619;53.784;10.440;2024-01-10T12:38:46;27.67;;;26.63;;
7154;SDS011;3619;53.784;10.440;2024-01-10T12:41:14;31.67;;;30.47;;
7154;SDS011;3619;53.784;10.440;2024-01-10T12:43:42;34.33;;;33.03;;
7154;SDS011;3619;53.784;10.440;2024-01-10T12:46:09;28.30;;;27.20;;
7154;SDS011;3619;53.784;10.440;2024-01-10T12:48:37;32.27;;;31.07;;
7154;SDS011;3619;53.784;10.440;2024-01-10T12:51:06;31.87;;;30.67;;
7154;SDS011;3619;53.784;10.440;2024-01-10T12:53:34;32.13;;;30.93;;
7154;SDS011;3619;53.784;10.440;2024-01-10T12:56:04;27.43;;;26.43;;
7154;SDS011;3619;53.784;10.440;2024-01-10T12:58:33;34.40;;;33.10;;
7154;SDS011;3619;53.784;10.440;2024-01-10T13:01:01;36.63;;;35.23;;
7154;SDS011;3619;53.784;10.440;2024-01-10T13:03:29;35.50;;;34.20;;
7154;SDS011;3619;53.784;10.440;2024-01-10T13:05:56;37.80;;;36.40;;
7154;SDS011;3619;53.784;10.440;2024-01-10T13:08:23;29.57;;;28.47;;
7154;SDS011;3619;53.784;10.440;2024-01-10T13:10:51;28.00;;;26.90;;
7154;SDS011;3619;53.784;10.440;2024-01-10T13:13:19;35.40;;;34.07;;
7154;SDS011;3619;53.784;10.440;2024-01-10T13:15:47;34.87;;;33.57;;
7154;SDS011;3619;53.784;10.440;2024-01-10T13:18:14;34.37;;;33.07;;
7154;SDS011;3619;53.784;10.440;2024-01-10T13:20:48;33.53;;;32.23;;
7154;SDS011;3619;53.784;10.440;2024-01-10T13:23:15;38.60;;;37.10;;
7154;SDS011;3619;53.784;10.440;2024-01-10T13:25:43;35.77;;;34.37;;
7154;SDS011;3619;53.784;10.440;2024-01-10T13:28:10;36.33;;;34.93;;
7154;SDS011;3619;53.784;10.440;2024-01-10T13:30:39;40.37;;;38.83;;
7154;SDS011;3619;53.784;10.440;2024-01-10T13:33:08;40.90;;;39.33;;
7154;SDS011;3619;53.784;10.440;2024-01-10T13:35:35;44.67;;;42.97;;
7154;SDS011;3619;53.784;10.440;2024-01-10T13:38:02;42.80;;;41.20;;
7154;SDS011;3619;53.784;10.440;2024-01-10T13:40:29;39.63;;;38.13;;
7154;SDS011;3619;53.784;10.440;2024-01-10T13:42:57;43.40;;;41.73;;
7154;SDS011;3619;53.784;10.440;2024-01-10T13:45:27;38.83;;;37.33;;
7154;SDS011;3619;53.784;10.440;2024-01-10T13:47:56;39.03;;;37.53;;
7154;SDS011;3619;53.784;10.440;2024-01-10T13:50:23;44.40;;;42.70;;
7154;SDS011;3619;53.784;10.440;2024-01-10T13:52:55;39.43;;;37.93;;
7154;SDS011;3619;53.784;10.440;2024-01-10T13:55:22;36.53;;;35.13;;
7154;SDS011;3619;53.784;10.440;2024-01-10T13:57:50;38.43;;;36.93;;
7154;SDS011;3619;53.784;10.440;2024-01-10T14:00:18;38.87;;;37.37;;
7154;SDS011;3619;53.784;10.440;2024-01-10T14:02:49;39.77;;;38.27;;
7154;SDS011;3619;53.784;10.440;2024-01-10T14:05:21;46.93;;;45.13;;
7154;SDS011;3619;53.784;10.440;2024-01-10T14:07:49;48.20;;;46.40;;
7154;SDS011;3619;53.784;10.440;2024-01-10T14:10:17;39.93;;;38.43;;
7154;SDS011;3619;53.784;10.440;2024-01-10T14:12:46;49.70;;;47.80;;
7154;SDS011;3619;53.784;10.440;2024-01-10T14:15:14;46.63;;;44.83;;
7154;SDS011;3619;53.784;10.440;2024-01-10T14:17:41;48.93;;;47.03;;
7154;SDS011;3619;53.784;10.440;2024-01-10T14:20:08;48.27;;;46.47;;
7154;SDS011;3619;53.784;10.440;2024-01-10T14:22:40;40.83;;;39.23;;
7154;SDS011;3619;53.784;10.440;2024-01-10T14:25:08;44.27;;;42.57;;
7154;SDS011;3619;53.784;10.440;2024-01-10T14:27:37;46.93;;;45.13;;
7154;SDS011;3619;53.784;10.440;2024-01-10T14:30:06;44.23;;;42.53;;
7154;SDS011;3619;53.784;10.440;2024-01-10T14:32:36;46.57;;;44.77;;
7154;SDS011;3619;53.784;10.440;2024-01-10T14:35:03;51.73;;;49.73;;
7154;SDS011;3619;53.784;10.440;2024-01-10T14:37:31;47.47;;;45.67;;
7154;SDS011;3619;53.784;10.440;2024-01-10T14:40:01;51.67;;;49.70;;
7154;SDS011;3619;53.784;10.440;2024-01-10T14:42:29;52.17;;;50.17;;
7154;SDS011;3619;53.784;10.440;2024-01-10T14:44:58;45.03;;;43.33;;